sensor_id;sensor_type;location;lat;lon;timestamp;temperature;humidity
24678;DHT22;12800;53.094;8.778;2024-01-15T00:02:17;3.60;89.20
24678;DHT22;12800;53.094;8.778;2024-01-15T00:04:43;3.60;89.30
24678;DHT22;12800;53.094;8.778;2024-01-15T00:07:09;3.60;89.30
24678;DHT22;12800;53.094;8.778;2024-01-15T00:09:35;3.60;89.30
24678;DHT22;12800;53.094;8.778;2024-01-15T00:12:01;3.60;89.30
24678;DHT22;12800;53.094;8.778;2024-01-15T00:14:27;3.60;89.30
24678;DHT22;12800;53.094;8.778;2024-01-15T00:16:53;3.60;89.20
24678;DHT22;12800;53.094;8.778;2024-01-15T00:19:21;3.60;89.10
24678;DHT22;12800;53.094;8.778;2024-01-15T00:21:47;3.60;89.00
24678;DHT22;12800;53.094;8.778;2024-01-15T00:24:13;3.60;89.10
24678;DHT22;12800;53.094;8.778;2024-01-15T00:26:39;3.60;89.10
24678;DHT22;12800;53.094;8.778;2024-01-15T00:29:07;3.60;89.80
24678;DHT22;12800;53.094;8.778;2024-01-15T00:31:32;3.70;89.20
24678;DHT22;12800;53.094;8.778;2024-01-15T00:33:58;3.70;89.10
24678;DHT22;12800;53.094;8.778;2024-01-15T00:36:24;3.70;88.80
24678;DHT22;12800;53.094;8.778;2024-01-15T00:38:50;3.70;88.70
24678;DHT22;12800;53.094;8.778;2024-01-15T00:41:16;3.70;88.70
24678;DHT22;12800;53.094;8.778;2024-01-15T00:43:46;3.80;88.60
24678;DHT22;12800;53.094;8.778;2024-01-15T00:46:14;3.70;88.50
24678;DHT22;12800;53.094;8.778;2024-01-15T00:48:40;3.70;88.60
24678;DHT22;12800;53.094;8.778;2024-01-15T00:51:06;3.70;88.50
24678;DHT22;12800;53.094;8.778;2024-01-15T00:53:31;3.80;88.50
24678;DHT22;12800;53.094;8.778;2024-01-15T00:55:57;3.80;88.50
24678;DHT22;12800;53.094;8.778;2024-01-15T00:58:23;3.80;88.30
24678;DHT22;12800;53.094;8.778;2024-01-15T01:00:48;3.80;88.30
24678;DHT22;12800;53.094;8.778;2024-01-15T01:03:14;3.80;88.40
24678;DHT22;12800;53.094;8.778;2024-01-15T01:05:40;3.80;88.40
24678;DHT22;12800;53.094;8.778;2024-01-15T01:08:05;3.80;88.40
24678;DHT22;12800;53.094;8.778;2024-01-15T01:10:31;3.70;88.40
24678;DHT22;12800;53.094;8.778;2024-01-15T01:12:56;3.70;88.50
24678;DHT22;12800;53.094;8.778;2024-01-15T01:15:22;3.80;88.70
24678;DHT22;12800;53.094;8.778;2024-01-15T01:17:48;3.80;88.60
24678;DHT22;12800;53.094;8.778;2024-01-15T01:20:13;3.70;88.70
24678;DHT22;12800;53.094;8.778;2024-01-15T01:22:41;3.80;88.90
24678;DHT22;12800;53.094;8.778;2024-01-15T01:25:07;3.80;88.80
24678;DHT22;12800;53.094;8.778;2024-01-15T01:27:33;3.80;88.80
24678;DHT22;12800;53.094;8.778;2024-01-15T01:29:59;3.80;88.90
24678;DHT22;12800;53.094;8.778;2024-01-15T01:32:24;3.80;88.80
24678;DHT22;12800;53.094;8.778;2024-01-15T01:34:50;3.70;88.80
24678;DHT22;12800;53.094;8.778;2024-01-15T01:37:15;3.70;88.90
24678;DHT22;12800;53.094;8.778;2024-01-15T01:39:42;3.60;89.00
24678;DHT22;12800;53.094;8.778;2024-01-15T01:42:07;3.60;89.30
24678;DHT22;12800;53.094;8.778;2024-01-15T01:44:33;3.50;89.50
24678;DHT22;12800;53.094;8.778;2024-01-15T01:47:00;3.50;89.70
24678;DHT22;12800;53.094;8.778;2024-01-15T01:49:27;3.50;89.70
24678;DHT22;12800;53.094;8.778;2024-01-15T01:51:56;3.50;89.90
24678;DHT22;12800;53.094;8.778;2024-01-15T01:54:23;3.50;90.00
24678;DHT22;12800;53.094;8.778;2024-01-15T01:56:50;3.50;90.10
24678;DHT22;12800;53.094;8.778;2024-01-15T01:59:16;3.50;90.10
24678;DHT22;12800;53.094;8.778;2024-01-15T02:01:43;3.50;90.20
24678;DHT22;12800;53.094;8.778;2024-01-15T02:04:10;3.50;90.20
24678;DHT22;12800;53.094;8.778;2024-01-15T02:06:35;3.50;90.20
24678;DHT22;12800;53.094;8.778;2024-01-15T02:09:01;3.50;90.20
24678;DHT22;12800;53.094;8.778;2024-01-15T02:11:27;3.50;90.20
24678;DHT22;12800;53.094;8.778;2024-01-15T02:13:53;3.50;90.30
24678;DHT22;12800;53.094;8.778;2024-01-15T02:16:18;3.50;90.30
24678;DHT22;12800;53.094;8.778;2024-01-15T02:18:45;3.50;90.30
24678;DHT22;12800;53.094;8.778;2024-01-15T02:21:11;3.50;90.40
24678;DHT22;12800;53.094;8.778;2024-01-15T02:23:38;3.60;90.50
24678;DHT22;12800;53.094;8.778;2024-01-15T02:26:05;3.60;90.40
24678;DHT22;12800;53.094;8.778;2024-01-15T02:28:32;3.60;90.80
24678;DHT22;12800;53.094;8.778;2024-01-15T02:30:58;3.60;90.40
24678;DHT22;12800;53.094;8.778;2024-01-15T02:33:24;3.60;90.40
24678;DHT22;12800;53.094;8.778;2024-01-15T02:35:49;3.60;90.50
24678;DHT22;12800;53.094;8.778;2024-01-15T02:38:16;3.70;90.50
24678;DHT22;12800;53.094;8.778;2024-01-15T02:40:43;3.70;90.50
24678;DHT22;12800;53.094;8.778;2024-01-15T02:43:09;3.70;90.50
24678;DHT22;12800;53.094;8.778;2024-01-15T02:45:34;3.80;90.50
24678;DHT22;12800;53.094;8.778;2024-01-15T02:48:00;3.80;90.40
24678;DHT22;12800;53.094;8.778;2024-01-15T02:50:26;3.80;90.40
24678;DHT22;12800;53.094;8.778;2024-01-15T02:52:52;3.70;90.40
24678;DHT22;12800;53.094;8.778;2024-01-15T02:55:17;3.80;90.50
24678;DHT22;12800;53.094;8.778;2024-01-15T02:57:43;3.80;90.40
24678;DHT22;12800;53.094;8.778;2024-01-15T03:00:09;3.80;90.40
24678;DHT22;12800;53.094;8.778;2024-01-15T03:02:39;3.80;90.40
24678;DHT22;12800;53.094;8.778;2024-01-15T03:05:06;3.70;90.30
24678;DHT22;12800;53.094;8.778;2024-01-15T03:07:33;3.70;90.30
24678;DHT22;12800;53.094;8.778;2024-01-15T03:09:59;3.60;90.30
24678;DHT22;12800;53.094;8.778;2024-01-15T03:12:24;3.60;90.30
24678;DHT22;12800;53.094;8.778;2024-01-15T03:14:50;3.60;90.40
24678;DHT22;12800;53.094;8.778;2024-01-15T03:17:16;3.60;90.30
24678;DHT22;12800;53.094;8.778;2024-01-15T03:19:41;3.60;90.70
24678;DHT22;12800;53.094;8.778;2024-01-15T03:22:07;3.60;90.40
24678;DHT22;12800;53.094;8.778;2024-01-15T03:24:34;3.60;90.40
24678;DHT22;12800;53.094;8.778;2024-01-15T03:27:00;3.60;90.30
24678;DHT22;12800;53.094;8.778;2024-01-15T03:29:26;3.60;90.30
24678;DHT22;12800;53.094;8.778;2024-01-15T03:31:52;3.60;90.40
24678;DHT22;12800;53.094;8.778;2024-01-15T03:34:18;3.60;90.30
24678;DHT22;12800;53.094;8.778;2024-01-15T03:36:43;3.60;90.30
24678;DHT22;12800;53.094;8.778;2024-01-15T03:39:09;3.70;90.30
24678;DHT22;12800;53.094;8.778;2024-01-15T03:41:35;3.60;90.30
24678;DHT22;12800;53.094;8.778;2024-01-15T03:44:00;3.60;90.30
24678;DHT22;12800;53.094;8.778;2024-01-15T03:46:27;3.60;90.40
24678;DHT22;12800;53.094;8.778;2024-01-15T03:48:52;3.60;90.40
24678;DHT22;12800;53.094;8.778;2024-01-15T03:51:18;3.70;90.40
24678;DHT22;12800;53.094;8.778;2024-01-15T03:53:44;3.70;90.40
24678;DHT22;12800;53.094;8.778;2024-01-15T03:56:09;3.70;90.40
24678;DHT22;12800;53.094;8.778;2024-01-15T03:58:35;3.70;90.30
24678;DHT22;12800;53.094;8.778;2024-01-15T04:01:01;3.70;90.30
24678;DHT22;12800;53.094;8.778;2024-01-15T04:03:26;3.70;90.30
24678;DHT22;12800;53.094;8.778;2024-01-15T04:05:52;3.70;90.40
24678;DHT22;12800;53.094;8.778;2024-01-15T04:08:17;3.60;90.30
24678;DHT22;12800;53.094;8.778;2024-01-15T04:10:43;3.60;90.40
24678;DHT22;12800;53.094;8.778;2024-01-15T04:13:09;3.70;90.40
24678;DHT22;12800;53.094;8.778;2024-01-15T04:15:34;3.70;90.50
24678;DHT22;12800;53.094;8.778;2024-01-15T04:18:02;3.70;90.40
24678;DHT22;12800;53.094;8.778;2024-01-15T04:20:28;3.70;90.40
24678;DHT22;12800;53.094;8.778;2024-01-15T04:22:54;3.70;90.40
24678;DHT22;12800;53.094;8.778;2024-01-15T04:25:19;3.70;90.50
24678;DHT22;12800;53.094;8.778;2024-01-15T04:27:45;3.70;90.40
24678;DHT22;12800;53.094;8.778;2024-01-15T04:30:11;3.70;90.30
24678;DHT22;12800;53.094;8.778;2024-01-15T04:32:36;3.70;90.30
24678;DHT22;12800;53.094;8.778;2024-01-15T04:35:02;3.70;90.30
24678;DHT22;12800;53.094;8.778;2024-01-15T04:37:28;3.70;90.40
24678;DHT22;12800;53.094;8.778;2024-01-15T04:39:54;3.70;90.40
24678;DHT22;12800;53.094;8.778;2024-01-15T04:42:21;3.80;90.40
24678;DHT22;12800;53.094;8.778;2024-01-15T04:44:47;3.80;90.40
24678;DHT22;12800;53.094;8.778;2024-01-15T04:47:13;3.80;90.40
24678;DHT22;12800;53.094;8.778;2024-01-15T04:49:39;3.80;90.30
24678;DHT22;12800;53.094;8.778;2024-01-15T04:52:04;3.90;90.40
24678;DHT22;12800;53.094;8.778;2024-01-15T04:54:30;3.90;90.30
24678;DHT22;12800;53.094;8.778;2024-01-15T04:56:56;3.90;90.20
24678;DHT22;12800;53.094;8.778;2024-01-15T04:59:21;3.90;90.20
24678;DHT22;12800;53.094;8.778;2024-01-15T05:01:47;3.90;90.20
24678;DHT22;12800;53.094;8.778;2024-01-15T05:04:14;3.80;90.20
24678;DHT22;12800;53.094;8.778;2024-01-15T05:06:40;3.80;90.30
24678;DHT22;12800;53.094;8.778;2024-01-15T05:09:05;3.80;90.20
24678;DHT22;12800;53.094;8.778;2024-01-15T05:11:31;3.80;90.20
24678;DHT22;12800;53.094;8.778;2024-01-15T05:13:57;3.80;90.20
24678;DHT22;12800;53.094;8.778;2024-01-15T05:16:22;3.80;90.20
24678;DHT22;12800;53.094;8.778;2024-01-15T05:18:48;3.70;90.20
24678;DHT22;12800;53.094;8.778;2024-01-15T05:21:13;3.70;90.30
24678;DHT22;12800;53.094;8.778;2024-01-15T05:23:39;3.70;90.30
24678;DHT22;12800;53.094;8.778;2024-01-15T05:26:05;3.70;90.30
24678;DHT22;12800;53.094;8.778;2024-01-15T05:28:30;3.70;90.30
24678;DHT22;12800;53.094;8.778;2024-01-15T05:30:56;3.70;90.30
24678;DHT22;12800;53.094;8.778;2024-01-15T05:33:23;3.70;90.40
24678;DHT22;12800;53.094;8.778;2024-01-15T05:35:49;3.70;90.30
24678;DHT22;12800;53.094;8.778;2024-01-15T05:38:16;3.70;90.40
24678;DHT22;12800;53.094;8.778;2024-01-15T05:40:41;3.70;90.40
24678;DHT22;12800;53.094;8.778;2024-01-15T05:43:07;3.70;90.40
24678;DHT22;12800;53.094;8.778;2024-01-15T05:45:34;3.70;90.40
24678;DHT22;12800;53.094;8.778;2024-01-15T05:48:00;3.70;90.40
24678;DHT22;12800;53.094;8.778;2024-01-15T05:50:26;3.70;90.40
24678;DHT22;12800;53.094;8.778;2024-01-15T05:52:51;3.70;90.40
24678;DHT22;12800;53.094;8.778;2024-01-15T05:55:17;3.70;90.40
24678;DHT22;12800;53.094;8.778;2024-01-15T05:57:44;3.70;90.40
24678;DHT22;12800;53.094;8.778;2024-01-15T06:00:10;3.70;90.40
24678;DHT22;12800;53.094;8.778;2024-01-15T06:02:37;3.80;90.40
24678;DHT22;12800;53.094;8.778;2024-01-15T06:05:04;3.80;90.40
24678;DHT22;12800;53.094;8.778;2024-01-15T06:07:29;3.80;90.30
24678;DHT22;12800;53.094;8.778;2024-01-15T06:09:55;3.80;90.40
24678;DHT22;12800;53.094;8.778;2024-01-15T06:12:22;3.80;90.30
24678;DHT22;12800;53.094;8.778;2024-01-15T06:14:48;3.80;90.20
24678;DHT22;12800;53.094;8.778;2024-01-15T06:17:14;3.80;90.20
24678;DHT22;12800;53.094;8.778;2024-01-15T06:19:40;3.80;90.30
24678;DHT22;12800;53.094;8.778;2024-01-15T06:22:05;3.80;90.30
24678;DHT22;12800;53.094;8.778;2024-01-15T06:24:31;3.80;90.30
24678;DHT22;12800;53.094;8.778;2024-01-15T06:26:57;3.90;90.30
24678;DHT22;12800;53.094;8.778;2024-01-15T06:29:25;3.80;90.20
24678;DHT22;12800;53.094;8.778;2024-01-15T06:31:51;3.80;90.20
24678;DHT22;12800;53.094;8.778;2024-01-15T06:34:16;3.80;90.20
24678;DHT22;12800;53.094;8.778;2024-01-15T06:36:42;3.80;90.20
24678;DHT22;12800;53.094;8.778;2024-01-15T06:39:08;3.70;90.30
24678;DHT22;12800;53.094;8.778;2024-01-15T06:41:35;3.80;90.30
24678;DHT22;12800;53.094;8.778;2024-01-15T06:44:06;3.70;90.20
24678;DHT22;12800;53.094;8.778;2024-01-15T06:46:32;3.70;90.30
24678;DHT22;12800;53.094;8.778;2024-01-15T06:48:58;3.70;90.40
24678;DHT22;12800;53.094;8.778;2024-01-15T06:51:23;3.70;90.40
24678;DHT22;12800;53.094;8.778;2024-01-15T06:53:49;3.70;90.30
24678;DHT22;12800;53.094;8.778;2024-01-15T06:56:14;3.70;90.30
24678;DHT22;12800;53.094;8.778;2024-01-15T06:58:40;3.70;90.30
24678;DHT22;12800;53.094;8.778;2024-01-15T07:01:06;3.70;90.30
24678;DHT22;12800;53.094;8.778;2024-01-15T07:03:31;3.70;90.40
24678;DHT22;12800;53.094;8.778;2024-01-15T07:05:57;3.60;90.30
24678;DHT22;12800;53.094;8.778;2024-01-15T07:08:23;3.60;90.30
24678;DHT22;12800;53.094;8.778;2024-01-15T07:10:49;3.50;90.40
24678;DHT22;12800;53.094;8.778;2024-01-15T07:13:14;3.50;90.40
24678;DHT22;12800;53.094;8.778;2024-01-15T07:15:40;3.50;90.40
24678;DHT22;12800;53.094;8.778;2024-01-15T07:18:05;3.50;90.40
24678;DHT22;12800;53.094;8.778;2024-01-15T07:20:31;3.50;90.50
24678;DHT22;12800;53.094;8.778;2024-01-15T07:22:57;3.40;90.40
24678;DHT22;12800;53.094;8.778;2024-01-15T07:25:23;3.40;90.50
24678;DHT22;12800;53.094;8.778;2024-01-15T07:27:50;3.40;90.50
24678;DHT22;12800;53.094;8.778;2024-01-15T07:30:15;3.30;90.40
24678;DHT22;12800;53.094;8.778;2024-01-15T07:32:41;3.30;90.50
24678;DHT22;12800;53.094;8.778;2024-01-15T07:35:07;3.30;90.60
24678;DHT22;12800;53.094;8.778;2024-01-15T07:37:33;3.30;90.60
24678;DHT22;12800;53.094;8.778;2024-01-15T07:39:59;3.30;90.70
24678;DHT22;12800;53.094;8.778;2024-01-15T07:42:25;3.30;90.80
24678;DHT22;12800;53.094;8.778;2024-01-15T07:44:51;3.40;90.70
24678;DHT22;12800;53.094;8.778;2024-01-15T07:47:17;3.40;90.70
24678;DHT22;12800;53.094;8.778;2024-01-15T07:49:42;3.40;90.70
24678;DHT22;12800;53.094;8.778;2024-01-15T07:52:08;3.40;90.70
24678;DHT22;12800;53.094;8.778;2024-01-15T07:54:34;3.50;90.80
24678;DHT22;12800;53.094;8.778;2024-01-15T07:57:01;3.50;90.80
24678;DHT22;12800;53.094;8.778;2024-01-15T07:59:28;3.50;90.70
24678;DHT22;12800;53.094;8.778;2024-01-15T08:01:54;3.50;90.70
24678;DHT22;12800;53.094;8.778;2024-01-15T08:04:20;3.50;90.70
24678;DHT22;12800;53.094;8.778;2024-01-15T08:06:47;3.60;90.80
24678;DHT22;12800;53.094;8.778;2024-01-15T08:09:13;3.60;90.70
24678;DHT22;12800;53.094;8.778;2024-01-15T08:11:40;3.60;90.70
24678;DHT22;12800;53.094;8.778;2024-01-15T08:14:07;3.60;90.60
24678;DHT22;12800;53.094;8.778;2024-01-15T08:16:33;3.70;90.50
24678;DHT22;12800;53.094;8.778;2024-01-15T08:18:59;3.70;90.50
24678;DHT22;12800;53.094;8.778;2024-01-15T08:21:24;3.70;90.40
24678;DHT22;12800;53.094;8.778;2024-01-15T08:23:50;3.70;90.40
24678;DHT22;12800;53.094;8.778;2024-01-15T08:26:16;3.70;90.30
24678;DHT22;12800;53.094;8.778;2024-01-15T08:28:41;3.70;90.30
24678;DHT22;12800;53.094;8.778;2024-01-15T08:31:07;3.70;90.20
24678;DHT22;12800;53.094;8.778;2024-01-15T08:33:33;3.70;90.20
24678;DHT22;12800;53.094;8.778;2024-01-15T08:35:58;3.70;90.10
24678;DHT22;12800;53.094;8.778;2024-01-15T08:38:24;3.70;90.20
24678;DHT22;12800;53.094;8.778;2024-01-15T08:40:50;3.70;90.20
24678;DHT22;12800;53.094;8.778;2024-01-15T08:43:18;3.70;90.10
24678;DHT22;12800;53.094;8.778;2024-01-15T08:45:44;3.70;90.10
24678;DHT22;12800;53.094;8.778;2024-01-15T08:48:10;3.70;90.10
24678;DHT22;12800;53.094;8.778;2024-01-15T08:50:36;3.70;90.10
24678;DHT22;12800;53.094;8.778;2024-01-15T08:53:01;3.70;90.10
24678;DHT22;12800;53.094;8.778;2024-01-15T08:55:28;3.70;90.00
24678;DHT22;12800;53.094;8.778;2024-01-15T08:57:53;3.70;90.00
24678;DHT22;12800;53.094;8.778;2024-01-15T09:00:19;3.60;89.80
24678;DHT22;12800;53.094;8.778;2024-01-15T09:02:45;3.60;90.30
24678;DHT22;12800;53.094;8.778;2024-01-15T09:05:11;3.70;90.00
24678;DHT22;12800;53.094;8.778;2024-01-15T09:07:36;3.70;90.00
24678;DHT22;12800;53.094;8.778;2024-01-15T09:10:02;3.70;89.90
24678;DHT22;12800;53.094;8.778;2024-01-15T09:12:28;3.70;89.90
24678;DHT22;12800;53.094;8.778;2024-01-15T09:14:54;3.80;90.00
24678;DHT22;12800;53.094;8.778;2024-01-15T09:17:21;3.80;89.90
24678;DHT22;12800;53.094;8.778;2024-01-15T09:19:49;3.80;89.70
24678;DHT22;12800;53.094;8.778;2024-01-15T09:22:14;3.80;89.60
24678;DHT22;12800;53.094;8.778;2024-01-15T09:24:44;3.80;89.70
24678;DHT22;12800;53.094;8.778;2024-01-15T09:27:09;3.80;89.60
24678;DHT22;12800;53.094;8.778;2024-01-15T09:29:35;3.80;89.70
24678;DHT22;12800;53.094;8.778;2024-01-15T09:32:05;3.80;89.60
24678;DHT22;12800;53.094;8.778;2024-01-15T09:34:33;3.80;89.60
24678;DHT22;12800;53.094;8.778;2024-01-15T09:36:58;3.80;89.80
24678;DHT22;12800;53.094;8.778;2024-01-15T09:39:26;3.90;89.80
24678;DHT22;12800;53.094;8.778;2024-01-15T09:41:52;3.80;89.60
24678;DHT22;12800;53.094;8.778;2024-01-15T09:44:19;3.80;89.70
24678;DHT22;12800;53.094;8.778;2024-01-15T09:46:46;3.80;89.80
24678;DHT22;12800;53.094;8.778;2024-01-15T09:49:12;3.80;89.90
24678;DHT22;12800;53.094;8.778;2024-01-15T09:51:38;3.80;90.00
24678;DHT22;12800;53.094;8.778;2024-01-15T09:54:05;3.80;90.00
24678;DHT22;12800;53.094;8.778;2024-01-15T09:56:31;3.80;90.40
24678;DHT22;12800;53.094;8.778;2024-01-15T09:58:57;3.80;90.10
24678;DHT22;12800;53.094;8.778;2024-01-15T10:01:23;3.90;90.10
24678;DHT22;12800;53.094;8.778;2024-01-15T10:03:50;3.90;90.00
24678;DHT22;12800;53.094;8.778;2024-01-15T10:06:17;3.80;90.00
24678;DHT22;12800;53.094;8.778;2024-01-15T10:08:49;3.80;90.00
24678;DHT22;12800;53.094;8.778;2024-01-15T10:11:15;3.90;90.00
24678;DHT22;12800;53.094;8.778;2024-01-15T10:13:43;3.90;90.00
24678;DHT22;12800;53.094;8.778;2024-01-15T10:16:09;3.90;90.00
24678;DHT22;12800;53.094;8.778;2024-01-15T10:18:34;3.90;90.00
24678;DHT22;12800;53.094;8.778;2024-01-15T10:21:02;3.90;89.90
24678;DHT22;12800;53.094;8.778;2024-01-15T10:23:28;4.00;90.00
24678;DHT22;12800;53.094;8.778;2024-01-15T10:25:57;4.00;89.90
24678;DHT22;12800;53.094;8.778;2024-01-15T10:28:22;4.00;89.80
24678;DHT22;12800;53.094;8.778;2024-01-15T10:30:56;4.00;89.60
24678;DHT22;12800;53.094;8.778;2024-01-15T10:33:22;4.00;89.80
24678;DHT22;12800;53.094;8.778;2024-01-15T10:35:58;4.10;89.80
24678;DHT22;12800;53.094;8.778;2024-01-15T10:38:25;4.10;89.70
24678;DHT22;12800;53.094;8.778;2024-01-15T10:40:54;4.10;89.60
24678;DHT22;12800;53.094;8.778;2024-01-15T10:43:21;4.10;89.70
24678;DHT22;12800;53.094;8.778;2024-01-15T10:45:47;4.10;89.70
24678;DHT22;12800;53.094;8.778;2024-01-15T10:48:14;4.10;89.70
24678;DHT22;12800;53.094;8.778;2024-01-15T10:50:40;4.10;89.70
24678;DHT22;12800;53.094;8.778;2024-01-15T10:53:08;4.20;89.60
24678;DHT22;12800;53.094;8.778;2024-01-15T10:55:35;4.10;89.50
24678;DHT22;12800;53.094;8.778;2024-01-15T10:58:02;4.10;89.60
24678;DHT22;12800;53.094;8.778;2024-01-15T11:00:29;4.10;89.70
24678;DHT22;12800;53.094;8.778;2024-01-15T11:02:55;4.10;89.50
24678;DHT22;12800;53.094;8.778;2024-01-15T11:05:22;4.10;89.50
24678;DHT22;12800;53.094;8.778;2024-01-15T11:07:49;4.00;89.50
24678;DHT22;12800;53.094;8.778;2024-01-15T11:10:51;4.00;89.80
24678;DHT22;12800;53.094;8.778;2024-01-15T11:16:07;4.10;89.80
24678;DHT22;12800;53.094;8.778;2024-01-15T11:18:38;4.10;89.80
24678;DHT22;12800;53.094;8.778;2024-01-15T11:23:52;4.10;89.70
24678;DHT22;12800;53.094;8.778;2024-01-15T11:29:06;4.10;89.70
24678;DHT22;12800;53.094;8.778;2024-01-15T11:34:10;4.10;89.70
24678;DHT22;12800;53.094;8.778;2024-01-15T11:42:02;4.20;89.50
24678;DHT22;12800;53.094;8.778;2024-01-15T11:44:29;4.30;89.40
24678;DHT22;12800;53.094;8.778;2024-01-15T11:46:58;4.30;89.20
24678;DHT22;12800;53.094;8.778;2024-01-15T11:52:11;4.40;89.40
24678;DHT22;12800;53.094;8.778;2024-01-15T11:54:38;4.40;89.20
24678;DHT22;12800;53.094;8.778;2024-01-15T11:57:10;4.50;89.10
24678;DHT22;12800;53.094;8.778;2024-01-15T11:59:37;4.50;89.10
24678;DHT22;12800;53.094;8.778;2024-01-15T12:02:03;4.50;88.90
24678;DHT22;12800;53.094;8.778;2024-01-15T12:04:29;4.50;88.60
24678;DHT22;12800;53.094;8.778;2024-01-15T12:06:54;4.50;88.50
24678;DHT22;12800;53.094;8.778;2024-01-15T12:09:20;4.50;88.40
24678;DHT22;12800;53.094;8.778;2024-01-15T12:11:53;4.50;88.30
24678;DHT22;12800;53.094;8.778;2024-01-15T12:14:21;4.50;88.30
24678;DHT22;12800;53.094;8.778;2024-01-15T12:16:47;4.50;88.40
24678;DHT22;12800;53.094;8.778;2024-01-15T12:19:15;4.60;88.40
24678;DHT22;12800;53.094;8.778;2024-01-15T12:21:40;4.60;88.20
24678;DHT22;12800;53.094;8.778;2024-01-15T12:24:07;4.70;88.30
24678;DHT22;12800;53.094;8.778;2024-01-15T12:26:33;4.70;88.40
24678;DHT22;12800;53.094;8.778;2024-01-15T12:29:02;4.80;88.40
24678;DHT22;12800;53.094;8.778;2024-01-15T12:31:29;4.80;88.20
24678;DHT22;12800;53.094;8.778;2024-01-15T12:33:56;4.80;88.00
24678;DHT22;12800;53.094;8.778;2024-01-15T12:36:21;4.80;87.90
24678;DHT22;12800;53.094;8.778;2024-01-15T12:38:47;4.80;88.00
24678;DHT22;12800;53.094;8.778;2024-01-15T12:41:13;4.90;88.20
24678;DHT22;12800;53.094;8.778;2024-01-15T12:43:39;4.90;88.20
24678;DHT22;12800;53.094;8.778;2024-01-15T12:46:06;4.90;87.80
24678;DHT22;12800;53.094;8.778;2024-01-15T12:48:31;4.80;87.70
24678;DHT22;12800;53.094;8.778;2024-01-15T12:50:57;4.80;87.70
24678;DHT22;12800;53.094;8.778;2024-01-15T12:53:23;4.80;87.60
24678;DHT22;12800;53.094;8.778;2024-01-15T12:55:48;4.70;87.70
24678;DHT22;12800;53.094;8.778;2024-01-15T12:58:14;4.70;87.90
24678;DHT22;12800;53.094;8.778;2024-01-15T13:00:39;4.60;87.90
24678;DHT22;12800;53.094;8.778;2024-01-15T13:03:05;4.50;87.80
24678;DHT22;12800;53.094;8.778;2024-01-15T13:05:32;4.50;87.70
24678;DHT22;12800;53.094;8.778;2024-01-15T13:07:58;4.30;87.60
24678;DHT22;12800;53.094;8.778;2024-01-15T13:10:24;4.20;87.90
24678;DHT22;12800;53.094;8.778;2024-01-15T13:12:50;4.20;88.20
24678;DHT22;12800;53.094;8.778;2024-01-15T13:15:16;4.20;88.60
24678;DHT22;12800;53.094;8.778;2024-01-15T13:17:43;4.20;88.70
24678;DHT22;12800;53.094;8.778;2024-01-15T13:20:09;4.20;88.80
24678;DHT22;12800;53.094;8.778;2024-01-15T13:22:36;4.20;89.00
24678;DHT22;12800;53.094;8.778;2024-01-15T13:25:04;4.20;88.90
24678;DHT22;12800;53.094;8.778;2024-01-15T13:27:32;4.10;88.80
24678;DHT22;12800;53.094;8.778;2024-01-15T13:30:00;4.10;88.90
24678;DHT22;12800;53.094;8.778;2024-01-15T13:32:27;4.00;89.00
24678;DHT22;12800;53.094;8.778;2024-01-15T13:34:55;4.00;89.00
24678;DHT22;12800;53.094;8.778;2024-01-15T13:37:21;4.00;89.00
24678;DHT22;12800;53.094;8.778;2024-01-15T13:39:46;3.90;89.10
24678;DHT22;12800;53.094;8.778;2024-01-15T13:42:12;3.90;89.10
24678;DHT22;12800;53.094;8.778;2024-01-15T13:44:37;3.90;89.20
24678;DHT22;12800;53.094;8.778;2024-01-15T13:47:03;3.80;89.30
24678;DHT22;12800;53.094;8.778;2024-01-15T13:49:30;3.80;89.40
24678;DHT22;12800;53.094;8.778;2024-01-15T13:51:56;3.80;89.40
24678;DHT22;12800;53.094;8.778;2024-01-15T13:54:22;3.80;89.60
24678;DHT22;12800;53.094;8.778;2024-01-15T13:56:48;3.80;89.70
24678;DHT22;12800;53.094;8.778;2024-01-15T13:59:15;3.80;89.70
24678;DHT22;12800;53.094;8.778;2024-01-15T14:01:42;3.80;89.70
24678;DHT22;12800;53.094;8.778;2024-01-15T14:04:07;3.70;89.70
24678;DHT22;12800;53.094;8.778;2024-01-15T14:06:33;3.80;90.00
24678;DHT22;12800;53.094;8.778;2024-01-15T14:08:59;3.80;90.00
24678;DHT22;12800;53.094;8.778;2024-01-15T14:11:24;3.80;90.10
24678;DHT22;12800;53.094;8.778;2024-01-15T14:13:50;3.80;90.00
24678;DHT22;12800;53.094;8.778;2024-01-15T14:16:16;3.70;90.00
24678;DHT22;12800;53.094;8.778;2024-01-15T14:18:42;3.70;90.10
24678;DHT22;12800;53.094;8.778;2024-01-15T14:21:07;3.70;90.10
24678;DHT22;12800;53.094;8.778;2024-01-15T14:23:33;3.70;90.40
24678;DHT22;12800;53.094;8.778;2024-01-15T14:25:58;3.70;90.20
24678;DHT22;12800;53.094;8.778;2024-01-15T14:28:24;3.70;90.20
24678;DHT22;12800;53.094;8.778;2024-01-15T14:30:50;3.80;90.30
24678;DHT22;12800;53.094;8.778;2024-01-15T14:33:16;3.80;90.20
24678;DHT22;12800;53.094;8.778;2024-01-15T14:35:42;3.80;90.30
24678;DHT22;12800;53.094;8.778;2024-01-15T14:38:08;3.90;90.30
24678;DHT22;12800;53.094;8.778;2024-01-15T14:40:34;3.90;90.20
24678;DHT22;12800;53.094;8.778;2024-01-15T14:43:02;3.90;90.20
24678;DHT22;12800;53.094;8.778;2024-01-15T14:45:28;3.90;90.20
24678;DHT22;12800;53.094;8.778;2024-01-15T14:47:55;3.90;90.20
24678;DHT22;12800;53.094;8.778;2024-01-15T14:50:22;3.90;90.10
24678;DHT22;12800;53.094;8.778;2024-01-15T14:52:48;3.90;90.20
24678;DHT22;12800;53.094;8.778;2024-01-15T14:55:14;3.90;90.10
24678;DHT22;12800;53.094;8.778;2024-01-15T14:57:40;3.90;90.10
24678;DHT22;12800;53.094;8.778;2024-01-15T15:00:06;3.80;90.00
24678;DHT22;12800;53.094;8.778;2024-01-15T15:02:34;3.80;90.00
24678;DHT22;12800;53.094;8.778;2024-01-15T15:05:01;3.80;90.10
24678;DHT22;12800;53.094;8.778;2024-01-15T15:07:27;3.80;90.10
24678;DHT22;12800;53.094;8.778;2024-01-15T15:09:52;3.80;90.10
24678;DHT22;12800;53.094;8.778;2024-01-15T15:12:18;3.80;90.10
24678;DHT22;12800;53.094;8.778;2024-01-15T15:14:44;3.80;90.10
24678;DHT22;12800;53.094;8.778;2024-01-15T15:17:09;3.70;90.10
24678;DHT22;12800;53.094;8.778;2024-01-15T15:19:35;3.70;90.10
24678;DHT22;12800;53.094;8.778;2024-01-15T15:22:01;3.70;90.20
24678;DHT22;12800;53.094;8.778;2024-01-15T15:24:27;3.70;90.20
24678;DHT22;12800;53.094;8.778;2024-01-15T15:26:53;3.70;90.20
24678;DHT22;12800;53.094;8.778;2024-01-15T15:29:18;3.70;90.20
24678;DHT22;12800;53.094;8.778;2024-01-15T15:31:45;3.70;90.20
24678;DHT22;12800;53.094;8.778;2024-01-15T15:34:11;3.70;90.20
24678;DHT22;12800;53.094;8.778;2024-01-15T15:36:36;3.70;90.20
24678;DHT22;12800;53.094;8.778;2024-01-15T15:39:02;3.70;90.30
24678;DHT22;12800;53.094;8.778;2024-01-15T15:41:28;3.70;90.30
24678;DHT22;12800;53.094;8.778;2024-01-15T15:43:54;3.70;90.30
24678;DHT22;12800;53.094;8.778;2024-01-15T15:46:20;3.70;90.30
24678;DHT22;12800;53.094;8.778;2024-01-15T15:48:46;3.70;90.30
24678;DHT22;12800;53.094;8.778;2024-01-15T15:51:11;3.70;90.30
24678;DHT22;12800;53.094;8.778;2024-01-15T15:53:37;3.70;90.30
24678;DHT22;12800;53.094;8.778;2024-01-15T15:56:03;3.70;90.40
24678;DHT22;12800;53.094;8.778;2024-01-15T15:58:29;3.60;90.30